createdAt,value
2019-02-15T00:00:57.818Z,53.20
2019-02-15T00:03:25.244Z,53.80
2019-02-15T00:05:52.685Z,53.10
2019-02-15T00:08:20.165Z,53.10
2019-02-15T00:10:47.564Z,53.60
2019-02-15T00:13:15.061Z,53.00
2019-02-15T00:15:42.616Z,52.90
2019-02-15T00:18:27.806Z,52.90
2019-02-15T00:20:59.769Z,52.90
2019-02-15T00:23:27.168Z,52.70
2019-02-15T00:25:54.675Z,52.70
2019-02-15T00:28:22.167Z,52.70
2019-02-15T00:30:49.579Z,52.60
2019-02-15T00:33:16.995Z,52.70
2019-02-15T00:35:44.814Z,52.50
2019-02-15T00:38:12.246Z,52.50
2019-02-15T00:40:39.720Z,52.50
2019-02-15T00:43:07.180Z,52.50
2019-02-15T00:45:40.611Z,52.50
2019-02-15T00:48:12.538Z,52.40
2019-02-15T00:50:58.191Z,52.40
2019-02-15T00:53:47.628Z,52.40
2019-02-15T00:56:52.124Z,52.30
2019-02-15T00:59:56.590Z,52.40
2019-02-15T01:02:52.139Z,52.20
2019-02-15T01:05:37.164Z,52.20
2019-02-15T01:08:17.737Z,52.30
2019-02-15T01:11:04.098Z,52.00
2019-02-15T01:13:31.506Z,52.20
2019-02-15T01:15:58.952Z,52.10
2019-02-15T01:18:26.470Z,52.20
2019-02-15T01:20:53.967Z,52.20
2019-02-15T01:23:21.399Z,52.00
2019-02-15T01:26:06.773Z,52.00
2019-02-15T01:28:43.471Z,52.00
2019-02-15T01:31:29.893Z,51.80
2019-02-15T01:34:19.273Z,51.80
2019-02-15T01:36:51.594Z,51.90
2019-02-15T01:39:43.791Z,51.90
2019-02-15T01:42:39.438Z,51.90
2019-02-15T01:45:34.761Z,51.70
2019-02-15T01:48:02.243Z,51.80
2019-02-15T01:50:29.640Z,51.60
2019-02-15T01:52:57.047Z,51.90
2019-02-15T01:55:24.601Z,51.70
2019-02-15T01:57:52.105Z,51.70
2019-02-15T02:00:20.490Z,51.70
2019-02-15T02:02:47.934Z,51.70
2019-02-15T02:05:15.504Z,51.60
2019-02-15T02:07:42.977Z,51.50
2019-02-15T02:10:10.400Z,51.60
2019-02-15T02:12:37.873Z,51.50
2019-02-15T02:15:05.578Z,51.40
2019-02-15T02:17:33.173Z,51.40
2019-02-15T02:20:00.580Z,51.60
2019-02-15T02:22:28.004Z,51.50
2019-02-15T02:24:58.529Z,51.50
2019-02-15T02:27:26.012Z,51.40
2019-02-15T02:29:53.435Z,51.30
2019-02-15T02:32:20.978Z,51.20
2019-02-15T02:34:48.453Z,51.30
2019-02-15T02:37:15.899Z,51.10
2019-02-15T02:39:43.335Z,51.20
2019-02-15T02:42:10.792Z,51.20
2019-02-15T02:44:38.198Z,51.10
2019-02-15T02:47:05.944Z,51.10
2019-02-15T02:49:33.408Z,51.00
2019-02-15T02:52:00.819Z,51.10
2019-02-15T02:54:28.272Z,51.00
2019-02-15T02:56:55.740Z,51.00
2019-02-15T02:59:23.283Z,51.10
2019-02-15T03:01:50.881Z,51.30
2019-02-15T03:04:18.265Z,51.00
2019-02-15T03:06:45.670Z,51.00
2019-02-15T03:09:13.085Z,51.10
2019-02-15T03:11:40.741Z,51.10
2019-02-15T03:14:11.380Z,51.10
2019-02-15T03:16:37.329Z,51.10
2019-02-15T03:19:04.792Z,50.90
2019-02-15T03:21:32.220Z,51.10
2019-02-15T03:24:00.023Z,50.90
2019-02-15T03:26:27.497Z,50.90
2019-02-15T03:28:54.906Z,50.80
2019-02-15T03:31:22.309Z,50.90
2019-02-15T03:33:49.900Z,50.80
2019-02-15T03:36:31.461Z,50.90
2019-02-15T03:39:11.826Z,50.80
2019-02-15T03:41:39.215Z,50.70
2019-02-15T03:44:06.620Z,50.80
2019-02-15T03:46:34.063Z,50.80
2019-02-15T03:49:01.477Z,50.90
2019-02-15T03:51:28.940Z,50.90
2019-02-15T03:53:59.451Z,51.00
2019-02-15T03:56:26.894Z,50.80
2019-02-15T03:58:54.298Z,50.70
2019-02-15T04:01:21.696Z,50.80
2019-02-15T04:03:49.180Z,50.70
2019-02-15T04:06:16.588Z,50.80
2019-02-15T04:08:43.992Z,50.60
2019-02-15T04:11:11.398Z,50.60
2019-02-15T04:13:38.793Z,50.70
2019-02-15T04:16:06.177Z,50.70
2019-02-15T04:18:33.605Z,50.60
2019-02-15T04:21:01.002Z,50.70
2019-02-15T04:23:28.436Z,50.60
2019-02-15T04:25:55.865Z,50.60
2019-02-15T04:28:25.576Z,50.60
2019-02-15T04:30:53.085Z,50.60
2019-02-15T04:33:20.636Z,50.50
2019-02-15T04:35:48.038Z,50.70
2019-02-15T04:38:15.490Z,50.50
2019-02-15T04:40:42.903Z,50.40
2019-02-15T04:43:10.295Z,50.20
2019-02-15T04:45:37.819Z,50.00
2019-02-15T04:48:05.316Z,49.90
2019-02-15T04:50:32.702Z,49.60
2019-02-15T04:53:02.909Z,49.60
2019-02-15T04:55:29.255Z,49.40
2019-02-15T04:57:56.640Z,49.40
2019-02-15T05:00:24.047Z,49.20
2019-02-15T05:02:51.592Z,49.10
2019-02-15T05:05:19.098Z,49.20
2019-02-15T05:07:46.548Z,49.10
2019-02-15T05:10:14.032Z,49.00
2019-02-15T05:12:41.423Z,49.00
2019-02-15T05:15:08.799Z,48.90
2019-02-15T05:17:36.287Z,48.80
2019-02-15T05:20:03.679Z,48.90
2019-02-15T05:22:31.125Z,48.90
2019-02-15T05:24:58.608Z,48.60
2019-02-15T05:27:26.012Z,48.70
2019-02-15T05:29:53.423Z,48.60
2019-02-15T05:32:20.955Z,48.60
2019-02-15T05:34:48.361Z,48.50
2019-02-15T05:37:15.745Z,48.50
2019-02-15T05:39:43.154Z,48.60
2019-02-15T05:42:10.552Z,48.60
2019-02-15T05:44:37.951Z,48.50
2019-02-15T05:47:05.443Z,48.40
2019-02-15T05:49:32.840Z,48.50
2019-02-15T05:52:00.258Z,48.40
2019-02-15T05:54:27.704Z,48.40
2019-02-15T05:56:55.172Z,48.40
2019-02-15T05:59:22.567Z,48.30
2019-02-15T06:01:50.025Z,48.30
2019-02-15T06:04:17.432Z,48.30
2019-02-15T06:06:44.953Z,48.30
2019-02-15T06:09:12.392Z,48.20
2019-02-15T06:11:40.059Z,48.20
2019-02-15T06:14:07.441Z,48.20
2019-02-15T06:16:34.915Z,48.20
2019-02-15T06:19:02.477Z,48.20
2019-02-15T06:21:30.081Z,48.20
2019-02-15T06:23:57.955Z,48.20
2019-02-15T06:26:25.455Z,48.20
2019-02-15T06:28:53.014Z,48.20
2019-02-15T06:31:20.427Z,48.00
2019-02-15T06:33:48.089Z,49.70
2019-02-15T06:36:15.543Z,51.30
2019-02-15T06:38:43.187Z,51.90
2019-02-15T06:41:12.415Z,51.70
2019-02-15T06:43:39.837Z,52.00
2019-02-15T06:46:07.284Z,52.20
2019-02-15T06:48:34.692Z,52.20
2019-02-15T06:51:02.132Z,52.10
2019-02-15T06:53:29.552Z,52.10
2019-02-15T06:55:57.018Z,52.10
2019-02-15T06:58:24.484Z,51.10
2019-02-15T07:01:06.276Z,50.60
2019-02-15T07:03:45.420Z,50.50
2019-02-15T07:06:12.843Z,50.20
2019-02-15T07:08:45.009Z,50.00
2019-02-15T07:11:12.721Z,50.00
2019-02-15T07:13:40.225Z,49.90
2019-02-15T07:16:07.695Z,49.80
2019-02-15T07:18:35.216Z,49.70
2019-02-15T07:21:02.756Z,49.60
2019-02-15T07:23:30.164Z,50.10
2019-02-15T07:25:57.596Z,49.40
2019-02-15T07:28:25.072Z,50.00
2019-02-15T07:30:52.488Z,49.50
2019-02-15T07:33:19.998Z,49.20
2019-02-15T07:35:47.537Z,49.30
2019-02-15T07:38:15.049Z,49.20
2019-02-15T07:40:42.584Z,49.10
2019-02-15T07:43:10.002Z,49.20
2019-02-15T07:45:42.919Z,49.30
2019-02-15T07:48:06.674Z,49.20
2019-02-15T07:50:34.104Z,49.40
2019-02-15T07:53:01.701Z,49.40
2019-02-15T07:55:29.253Z,50.40
2019-02-15T07:57:56.647Z,49.70
2019-02-15T08:00:24.082Z,49.90
2019-02-15T08:02:51.559Z,48.30
2019-02-15T08:05:18.995Z,48.70
2019-02-15T08:07:46.391Z,48.40
2019-02-15T08:10:13.807Z,48.30
2019-02-15T08:12:41.269Z,48.20
2019-02-15T08:15:08.753Z,48.00
2019-02-15T08:17:36.154Z,47.60
2019-02-15T08:20:03.606Z,47.50
2019-02-15T08:22:31.014Z,48.20
2019-02-15T08:24:58.608Z,47.30
2019-02-15T08:27:26.044Z,47.20
2019-02-15T08:29:53.463Z,47.10
2019-02-15T08:32:20.882Z,47.00
2019-02-15T08:34:48.352Z,47.00
2019-02-15T08:37:15.798Z,47.00
2019-02-15T08:39:43.217Z,46.90
2019-02-15T08:42:10.662Z,46.80
2019-02-15T08:44:38.171Z,46.80
2019-02-15T08:47:06.996Z,46.80
2019-02-15T08:49:34.451Z,46.80
2019-02-15T08:52:01.913Z,46.90
2019-02-15T08:54:29.328Z,46.90
2019-02-15T08:56:57.053Z,46.90
2019-02-15T08:59:24.530Z,46.70
2019-02-15T09:02:26.106Z,46.70
2019-02-15T09:04:53.720Z,46.60
2019-02-15T09:07:21.180Z,46.80
2019-02-15T09:09:48.633Z,46.70
2019-02-15T09:12:16.027Z,46.70
2019-02-15T09:14:43.420Z,46.60
2019-02-15T09:17:10.933Z,46.60
2019-02-15T09:19:38.514Z,46.50
2019-02-15T09:22:06.007Z,46.50
2019-02-15T09:24:33.502Z,46.50
2019-02-15T09:27:07.525Z,46.40
2019-02-15T09:29:35.111Z,46.30
2019-02-15T09:32:02.633Z,46.20
2019-02-15T09:34:30.145Z,46.20
2019-02-15T09:36:57.587Z,46.20
2019-02-15T09:39:25.008Z,46.00
2019-02-15T09:41:52.530Z,46.20
2019-02-15T09:44:19.941Z,46.20
2019-02-15T09:46:47.545Z,46.00
2019-02-15T09:49:15.015Z,46.10
2019-02-15T09:51:42.514Z,46.10
2019-02-15T09:54:09.952Z,46.30
2019-02-15T09:56:37.477Z,46.40
2019-02-15T09:59:04.932Z,46.40
2019-02-15T10:01:32.347Z,46.40
2019-02-15T10:03:59.795Z,46.30
2019-02-15T10:06:27.354Z,46.50
2019-02-15T10:08:54.809Z,46.80
2019-02-15T10:11:22.243Z,46.70
2019-02-15T10:13:49.636Z,46.60
2019-02-15T10:16:17.143Z,46.60
2019-02-15T10:18:44.682Z,46.50
2019-02-15T10:21:12.172Z,46.80
2019-02-15T10:23:39.667Z,46.50
2019-02-15T10:26:07.312Z,46.90
2019-02-15T10:28:34.867Z,46.90
2019-02-15T10:31:02.284Z,46.70
2019-02-15T10:33:29.767Z,46.40
2019-02-15T10:35:57.214Z,46.50
2019-02-15T10:38:24.795Z,46.60
2019-02-15T10:40:52.352Z,46.60
2019-02-15T10:43:19.776Z,46.50
2019-02-15T10:45:47.267Z,46.60
2019-02-15T10:48:14.903Z,46.60
2019-02-15T10:50:42.387Z,46.30
2019-02-15T10:53:12.999Z,46.40
2019-02-15T10:55:59.333Z,46.60
2019-02-15T10:59:04.350Z,47.10
2019-02-15T11:01:42.629Z,47.40
2019-02-15T11:04:41.030Z,47.40
2019-02-15T11:07:07.545Z,47.80
2019-02-15T11:09:34.974Z,48.30
2019-02-15T11:12:02.406Z,48.90
2019-02-15T11:14:29.934Z,48.50
2019-02-15T11:16:57.364Z,48.70
2019-02-15T11:19:24.812Z,48.50
2019-02-15T11:21:52.248Z,48.30
2019-02-15T11:24:19.918Z,48.40
2019-02-15T11:26:47.398Z,49.10
2019-02-15T11:29:14.925Z,49.00
2019-02-15T11:31:42.433Z,49.30
2019-02-15T11:34:09.935Z,49.20
2019-02-15T11:36:37.386Z,49.50
2019-02-15T11:39:05.462Z,49.30
2019-02-15T11:41:32.975Z,49.90
2019-02-15T12:22:07.856Z,49.30
2019-02-15T12:24:35.328Z,49.20
2019-02-15T12:27:02.767Z,49.50
2019-02-15T12:29:30.329Z,49.60
2019-02-15T12:31:57.808Z,49.20
2019-02-15T12:34:25.286Z,49.20
2019-02-15T12:36:52.813Z,49.30
2019-02-15T12:39:20.227Z,49.70
2019-02-15T12:41:47.640Z,49.50
2019-02-15T12:44:15.222Z,49.70
2019-02-15T12:46:42.692Z,49.80
2019-02-15T13:06:35.811Z,50.10
2019-02-15T13:09:04.684Z,49.80
2019-02-15T13:11:32.170Z,50.30
2019-02-15T13:13:59.614Z,50.10
2019-02-15T13:16:27.065Z,50.30
2019-02-15T13:18:54.500Z,49.90
2019-02-15T13:21:22.094Z,50.50
2019-02-15T13:23:49.494Z,50.40
2019-02-15T13:26:16.952Z,50.20
2019-02-15T13:28:44.516Z,51.00
2019-02-15T13:31:12.167Z,50.50
2019-02-15T13:33:39.603Z,50.30
2019-02-15T13:36:07.149Z,50.10
2019-02-15T13:38:34.629Z,50.20
2019-02-15T13:41:02.138Z,50.30
2019-02-15T13:43:29.572Z,50.60
2019-02-15T13:45:56.976Z,50.60
2019-02-15T13:48:24.933Z,51.10
2019-02-15T13:50:52.350Z,50.30
2019-02-15T13:53:19.765Z,50.40
2019-02-15T13:55:47.236Z,50.70
2019-02-15T13:58:14.685Z,51.10
2019-02-15T14:00:42.160Z,51.00
2019-02-15T14:03:09.591Z,50.50
2019-02-15T14:58:15.851Z,50.90
2019-02-15T15:00:43.341Z,50.90
2019-02-15T15:03:10.812Z,50.80
2019-02-15T15:05:38.354Z,50.80
2019-02-15T15:08:05.842Z,50.80
2019-02-15T15:10:33.291Z,50.70
2019-02-15T15:13:00.704Z,50.80
2019-02-15T15:15:28.131Z,50.70
2019-02-15T15:18:02.467Z,50.80
2019-02-15T15:20:24.796Z,50.90
2019-02-15T15:22:52.223Z,50.70
2019-02-15T15:25:19.729Z,50.60
2019-02-15T15:27:47.143Z,50.70
2019-02-15T15:30:14.520Z,50.60
2019-02-15T15:32:41.987Z,50.60
2019-02-15T15:35:09.418Z,50.60
2019-02-15T15:37:36.831Z,50.50
2019-02-15T15:40:04.360Z,50.50
2019-02-15T15:42:31.785Z,50.60
2019-02-15T15:44:59.210Z,50.50
2019-02-15T15:47:26.689Z,50.30
2019-02-15T15:49:54.137Z,50.60
2019-02-15T15:52:21.616Z,50.40
2019-02-15T15:54:49.107Z,50.30
2019-02-15T15:57:16.647Z,50.20
2019-02-15T15:59:44.181Z,50.30
2019-02-15T16:02:11.683Z,50.30
2019-02-15T16:04:39.140Z,50.30
2019-02-15T16:07:06.685Z,50.20
2019-02-15T16:09:34.183Z,50.10
2019-02-15T16:12:01.693Z,49.90
2019-02-15T16:14:29.086Z,49.70
2019-02-15T16:16:56.524Z,49.60
2019-02-15T16:19:23.978Z,49.50
2019-02-15T16:21:51.488Z,49.60
2019-02-15T16:24:18.974Z,49.40
2019-02-15T16:26:46.526Z,49.40
2019-02-15T16:29:14.171Z,49.80
2019-02-15T16:31:41.774Z,50.00
2019-02-15T16:34:09.368Z,50.60
2019-02-15T16:36:36.830Z,49.90
2019-02-15T16:39:05.019Z,49.70
2019-02-15T16:41:32.461Z,49.60
2019-02-15T16:43:59.975Z,49.70
2019-02-15T16:46:27.489Z,49.70
2019-02-15T16:48:55.153Z,49.80
2019-02-15T16:51:22.654Z,49.50
2019-02-15T16:53:50.139Z,49.70
2019-02-15T16:56:17.667Z,49.60
2019-02-15T16:58:45.119Z,49.70
2019-02-15T17:01:12.624Z,49.90
2019-02-15T17:03:40.139Z,49.70
2019-02-15T17:06:07.658Z,49.60
2019-02-15T17:08:35.150Z,49.80
2019-02-15T17:11:02.639Z,49.80
2019-02-15T17:13:30.050Z,50.00
2019-02-15T17:15:57.563Z,49.90
2019-02-15T17:18:25.016Z,50.20
2019-02-15T17:20:52.444Z,50.50
2019-02-15T17:23:19.902Z,51.20
2019-02-15T17:25:47.347Z,50.60
2019-02-15T17:28:14.852Z,50.70
2019-02-15T17:30:42.282Z,50.80
2019-02-15T17:33:09.710Z,50.90
2019-02-15T17:35:37.190Z,50.90
2019-02-15T17:38:04.680Z,51.10
2019-02-15T17:40:32.224Z,51.20
2019-02-15T17:42:59.697Z,51.10
2019-02-15T17:45:27.193Z,51.30
2019-02-15T17:47:54.797Z,51.60
2019-02-15T17:50:22.277Z,52.60
2019-02-15T17:52:49.712Z,52.50
2019-02-15T17:55:17.199Z,52.40
2019-02-15T17:57:44.640Z,53.10
2019-02-15T18:00:12.053Z,52.50
2019-02-15T18:02:39.574Z,52.20
2019-02-15T18:05:08.549Z,51.80
2019-02-15T18:07:35.990Z,51.70
2019-02-15T18:10:03.484Z,51.50
2019-02-15T18:12:30.969Z,51.30
2019-02-15T18:14:58.393Z,51.60
2019-02-15T18:17:25.951Z,52.20
2019-02-15T18:19:53.395Z,53.10
2019-02-15T18:22:20.890Z,53.10
2019-02-15T18:24:48.377Z,53.30
2019-02-15T18:27:15.798Z,53.40
2019-02-15T18:29:43.328Z,54.10
2019-02-15T18:32:10.874Z,53.50
2019-02-15T18:34:38.350Z,53.50
2019-02-15T18:37:05.824Z,53.30
2019-02-15T18:39:33.355Z,53.30
2019-02-15T18:42:01.849Z,53.50
2019-02-15T18:44:29.319Z,53.80
2019-02-15T18:46:56.767Z,54.10
2019-02-15T18:49:24.233Z,54.20
2019-02-15T18:51:51.752Z,53.60
2019-02-15T18:54:19.288Z,53.20
2019-02-15T18:56:46.751Z,53.80
2019-02-15T18:59:14.176Z,53.60
2019-02-15T19:01:41.581Z,53.30
2019-02-15T19:04:09.019Z,53.40
2019-02-15T19:06:36.619Z,53.10
2019-02-15T19:09:04.925Z,53.20
2019-02-15T19:11:32.402Z,53.10
2019-02-15T19:13:59.871Z,53.10
2019-02-15T19:16:27.312Z,53.10
2019-02-15T19:18:54.781Z,53.20
2019-02-15T19:21:22.243Z,53.20
2019-02-15T19:23:49.669Z,53.30
2019-02-15T19:26:17.205Z,53.30
2019-02-15T19:28:44.695Z,53.50
2019-02-15T19:31:12.139Z,53.60
2019-02-15T19:33:39.595Z,53.60
2019-02-15T19:36:07.302Z,53.30
2019-02-15T19:38:34.720Z,53.50
2019-02-15T19:41:02.216Z,53.20
2019-02-15T19:43:29.637Z,53.80
2019-02-15T19:45:57.048Z,53.60
2019-02-15T19:48:24.490Z,53.10
2019-02-15T19:50:52.253Z,52.90
2019-02-15T19:53:19.734Z,52.80
2019-02-15T19:55:47.226Z,52.80
2019-02-15T19:58:14.702Z,52.70
2019-02-15T20:00:42.344Z,52.50
2019-02-15T20:03:09.853Z,52.50
2019-02-15T20:05:37.413Z,52.60
2019-02-15T20:08:04.826Z,52.30
2019-02-15T20:10:32.408Z,52.30
2019-02-15T20:13:00.927Z,52.20
2019-02-15T20:15:28.501Z,52.20
2019-02-15T20:17:56.013Z,52.10
2019-02-15T20:20:23.468Z,52.10
2019-02-15T20:22:50.989Z,52.00
2019-02-15T20:25:18.435Z,52.20
2019-02-15T20:27:45.992Z,51.80
2019-02-15T20:30:13.450Z,52.50
2019-02-15T20:32:40.852Z,53.00
2019-02-15T20:35:08.254Z,52.70
2019-02-15T20:37:35.803Z,52.70
2019-02-15T20:40:03.272Z,52.60
2019-02-15T20:42:30.760Z,52.20
2019-02-15T20:44:58.233Z,52.00
2019-02-15T20:47:25.874Z,52.20
2019-02-15T20:49:58.095Z,52.10
2019-02-15T20:52:23.298Z,52.00
2019-02-15T20:54:50.747Z,52.00
2019-02-15T20:57:18.248Z,52.00
2019-02-15T20:59:45.692Z,51.70
2019-02-15T21:02:14.396Z,51.70
2019-02-15T21:04:41.961Z,51.90
2019-02-15T21:07:09.446Z,51.60
2019-02-15T21:09:36.910Z,51.70
2019-02-15T21:12:04.301Z,51.60
2019-02-15T21:14:31.766Z,51.50
2019-02-15T21:16:59.181Z,51.30
2019-02-15T21:19:26.644Z,51.60
2019-02-15T21:21:54.199Z,51.80
2019-02-15T21:24:21.614Z,51.90
2019-02-15T21:26:49.149Z,51.90
2019-02-15T21:29:16.620Z,51.50
2019-02-15T21:31:44.128Z,51.70
2019-02-15T21:34:12.541Z,51.60
2019-02-15T21:36:40.069Z,51.50
2019-02-15T21:39:07.671Z,51.60
2019-02-15T21:41:35.128Z,51.50
2019-02-15T21:44:02.549Z,52.10
2019-02-15T21:46:29.994Z,51.50
2019-02-15T21:48:57.437Z,51.60
2019-02-15T21:51:24.940Z,51.50
2019-02-15T21:53:52.437Z,51.30
2019-02-15T21:56:20.001Z,51.50
2019-02-15T21:58:47.446Z,51.40
2019-02-15T22:01:14.951Z,51.50
2019-02-15T22:03:42.341Z,51.40
2019-02-15T22:06:09.848Z,51.40
2019-02-15T22:08:37.346Z,51.70
2019-02-15T22:11:04.797Z,51.80
2019-02-15T22:13:32.217Z,51.60
2019-02-15T22:15:59.726Z,51.80
2019-02-15T22:18:27.167Z,51.90
2019-02-15T22:20:54.586Z,51.70
2019-02-15T22:23:22.016Z,51.40
2019-02-15T22:25:49.489Z,51.60
2019-02-15T22:28:16.986Z,52.40
2019-02-15T22:30:44.472Z,52.90
2019-02-15T22:33:12.059Z,53.20
2019-02-15T22:35:39.548Z,53.30
2019-02-15T22:38:07.067Z,53.40
2019-02-15T22:40:34.530Z,53.40
2019-02-15T22:43:01.964Z,53.30
2019-02-15T22:45:29.409Z,53.40
2019-02-15T22:47:56.891Z,54.30
2019-02-15T22:50:24.412Z,54.50
2019-02-15T22:52:51.820Z,54.40
2019-02-15T22:55:19.249Z,54.30
2019-02-15T22:57:46.697Z,53.80
2019-02-15T23:00:14.273Z,53.40
2019-02-15T23:02:41.732Z,53.40
2019-02-15T23:05:09.137Z,53.10
2019-02-15T23:07:36.615Z,53.00
2019-02-15T23:10:05.141Z,52.90
2019-02-15T23:12:32.626Z,52.90
2019-02-15T23:15:00.105Z,52.80
2019-02-15T23:17:27.633Z,52.80
2019-02-15T23:19:55.123Z,53.00
2019-02-15T23:22:22.521Z,52.80
2019-02-15T23:24:50.035Z,52.50
2019-02-15T23:27:17.481Z,52.30
2019-02-15T23:29:44.880Z,52.20
2019-02-15T23:32:12.321Z,52.10
2019-02-15T23:34:39.740Z,52.00
2019-02-15T23:37:07.557Z,51.90
2019-02-15T23:39:34.978Z,51.90
2019-02-15T23:42:02.376Z,51.90
2019-02-15T23:44:29.770Z,51.90
2019-02-15T23:46:57.237Z,51.90
2019-02-15T23:49:24.843Z,51.70
2019-02-15T23:51:52.307Z,52.10
2019-02-15T23:54:19.800Z,51.50
2019-02-15T23:56:47.195Z,51.40
2019-02-15T23:59:14.813Z,51.30
